Terminal Aerodrome Forecast
Issued by NWS Tulsa, OK

Home | Current Version | Previous Version | Text Only | Print | Product List | Glossary On
Versions: 1 2 3 4 5 6 7 8 9 10 11 12 13
000
FTUS44 KTSA 312300
TAFFSM
TAF
KFSM 312340Z 0100/0124 10008KT P6SM OVC090
      TEMPO 0101/0105 6SM -RA OVC050
     FM010500 10008KT 4SM -RA BR OVC035
     FM010800 09006KT 4SM -RA BR OVC015
     FM011000 14006KT 4SM -RA BR OVC008
     FM011700 28015G23KT P6SM OVC025 PROB30 0117/0118 4SM -RA OVC015
     FM012100 29019G27KT P6SM OVC050=

USA.gov is the U.S. government's official web portal to all federal, state and local government web resources and services.